Time;durP1;ratioP1;P1;durP2;ratioP2;P2;SDS_P1;SDS_P2;PMS_P1;PMS_P2;Temp;Humidity;BMP_temperature;BMP_pressure;BME280_temperature;BME280_humidity;BME280_pressure;Samples;Min_cycle;Max_cycle;Signal;HPM_P1;HPM_P2
2024/03/30 00:00:08;;;;;;;5.22;3.10;;;11.00;99.90;;;;;;5089891;28;20024;-75
2024/03/30 00:02:34;;;;;;;3.72;2.40;;;11.00;99.90;;;;;;5089131;28;20028;-75
2024/03/30 00:05:00;;;;;;;3.55;2.70;;;11.00;99.90;;;;;;5089637;28;20023;-74
2024/03/30 00:07:26;;;;;;;3.67;2.42;;;11.00;99.90;;;;;;5085150;28;20021;-74
2024/03/30 00:09:51;;;;;;;3.13;2.63;;;11.00;99.90;;;;;;5086542;28;20018;-75
2024/03/30 00:12:17;;;;;;;2.90;2.30;;;11.00;99.90;;;;;;5070353;28;20016;-74
2024/03/30 00:14:43;;;;;;;5.40;3.50;;;11.00;99.90;;;;;;5069048;28;20409;-74
2024/03/30 00:17:09;;;;;;;4.03;2.60;;;11.00;99.90;;;;;;5070631;28;20030;-74
2024/03/30 00:19:39;;;;;;;2.85;2.17;;;11.00;99.90;;;;;;5069263;28;20111;-74
2024/03/30 00:22:05;;;;;;;2.72;2.08;;;11.00;99.90;;;;;;5070245;28;20642;-74
2024/03/30 00:24:31;;;;;;;2.63;2.30;;;10.90;99.90;;;;;;5068558;28;20081;-74
2024/03/30 00:26:59;;;;;;;3.35;2.45;;;10.90;99.90;;;;;;5060587;28;20477;-74
2024/03/30 00:29:25;;;;;;;3.20;2.30;;;10.90;99.90;;;;;;5057288;28;20079;-74
2024/03/30 00:31:53;;;;;;;4.32;2.17;;;10.90;99.90;;;;;;5066402;28;20024;-74
2024/03/30 00:34:19;;;;;;;3.55;2.20;;;10.90;99.90;;;;;;5068344;28;20408;-74
2024/03/30 00:36:48;;;;;;;3.20;2.03;;;10.90;99.90;;;;;;5068956;28;20104;-75
2024/03/30 00:39:14;;;;;;;2.92;2.10;;;10.90;99.90;;;;;;5070036;28;20031;-74
2024/03/30 00:41:42;;;;;;;4.57;2.67;;;10.90;99.90;;;;;;5068820;28;20025;-75
2024/03/30 00:44:08;;;;;;;4.32;3.08;;;10.90;99.90;;;;;;5069787;28;20029;-74
2024/03/30 00:46:34;;;;;;;2.92;2.50;;;10.80;99.90;;;;;;5068630;28;20051;-74
2024/03/30 00:49:02;;;;;;;3.95;3.10;;;10.80;99.90;;;;;;5061633;28;20500;-75
2024/03/30 00:51:29;;;;;;;4.78;3.58;;;10.80;99.90;;;;;;5069695;28;20012;-74
2024/03/30 00:53:54;;;;;;;3.60;3.05;;;10.80;99.90;;;;;;5068324;28;20389;-74
2024/03/30 00:56:20;;;;;;;4.80;3.88;;;10.80;99.90;;;;;;5068803;28;20013;-75
2024/03/30 00:58:46;;;;;;;4.40;3.60;;;10.80;99.90;;;;;;5068652;28;20059;-74
2024/03/30 01:01:16;;;;;;;3.63;3.30;;;10.80;99.90;;;;;;5069683;28;20029;-74
2024/03/30 01:03:42;;;;;;;3.58;3.20;;;10.80;99.90;;;;;;5067913;28;20388;-75
2024/03/30 01:06:07;;;;;;;8.25;3.17;;;10.80;99.90;;;;;;5069692;28;20025;-75
2024/03/30 01:08:33;;;;;;;3.20;2.60;;;10.70;99.90;;;;;;5064893;28;20061;-74
2024/03/30 01:10:59;;;;;;;3.67;3.17;;;10.70;99.90;;;;;;5066407;28;20112;-74
2024/03/30 01:13:25;;;;;;;3.15;2.58;;;10.70;99.90;;;;;;5068247;28;20017;-74
2024/03/30 01:15:52;;;;;;;3.28;2.58;;;10.70;99.90;;;;;;5068573;28;20027;-74
2024/03/30 01:18:19;;;;;;;2.72;2.40;;;10.60;99.90;;;;;;5068378;28;20482;-74
2024/03/30 01:20:45;;;;;;;3.78;3.10;;;10.70;99.90;;;;;;5068536;28;20327;-74
2024/03/30 01:23:14;;;;;;;7.47;2.78;;;10.70;99.90;;;;;;5060954;28;20394;-74
2024/03/30 01:25:53;;;;;;;3.45;2.42;;;10.60;99.90;;;;;;5068399;28;20020;-74
2024/03/30 01:28:28;;;;;;;2.78;2.38;;;10.70;99.90;;;;;;5068344;28;20102;-74
2024/03/30 01:30:54;;;;;;;3.70;2.38;;;10.70;99.90;;;;;;5068219;28;20074;-75
2024/03/30 01:33:19;;;;;;;2.97;2.28;;;10.70;99.90;;;;;;5068199;28;20029;-74
2024/03/30 01:35:46;;;;;;;4.20;2.05;;;10.70;99.90;;;;;;5068441;28;20019;-74
2024/03/30 01:38:12;;;;;;;2.85;2.42;;;10.60;99.90;;;;;;5068358;28;20024;-75
2024/03/30 01:40:39;;;;;;;5.63;2.78;;;10.60;99.90;;;;;;5068295;28;20044;-74
2024/03/30 01:43:05;;;;;;;3.40;2.00;;;10.70;99.90;;;;;;5069098;28;20052;-75
2024/03/30 01:45:33;;;;;;;2.72;2.10;;;10.60;99.90;;;;;;5068071;28;20021;-74
2024/03/30 01:48:02;;;;;;;3.55;1.90;;;10.60;99.90;;;;;;5069524;28;20029;-74
2024/03/30 01:50:30;;;;;;;3.35;2.30;;;10.60;99.90;;;;;;5069411;28;20017;-75
2024/03/30 01:52:58;;;;;;;3.72;2.50;;;10.60;99.90;;;;;;5068178;28;20465;-75
2024/03/30 01:55:24;;;;;;;4.40;2.55;;;10.60;99.90;;;;;;5068321;28;20428;-74
2024/03/30 01:57:51;;;;;;;2.65;1.85;;;10.60;99.90;;;;;;5066755;28;20021;-74
2024/03/30 02:00:18;;;;;;;2.28;2.00;;;10.60;99.90;;;;;;5072968;28;20371;-75
2024/03/30 02:02:45;;;;;;;3.58;2.60;;;10.50;99.90;;;;;;5072302;28;20386;-74
2024/03/30 02:05:12;;;;;;;4.45;2.42;;;10.50;99.90;;;;;;5071669;28;20025;-74
2024/03/30 02:07:39;;;;;;;3.03;2.58;;;10.50;99.90;;;;;;5072973;28;20394;-74
2024/03/30 02:10:05;;;;;;;5.10;2.55;;;10.60;99.90;;;;;;5071525;28;20028;-74
2024/03/30 02:12:31;;;;;;;2.92;2.55;;;10.50;99.90;;;;;;5070795;28;20021;-75
2024/03/30 02:14:57;;;;;;;2.95;2.35;;;10.50;99.90;;;;;;5071336;28;20086;-74
2024/03/30 02:17:23;;;;;;;4.00;2.50;;;10.50;99.90;;;;;;5071453;28;20033;-74
2024/03/30 02:19:49;;;;;;;3.42;2.80;;;10.50;99.90;;;;;;5065010;28;20031;-74
2024/03/30 02:22:18;;;;;;;3.05;2.47;;;10.40;99.90;;;;;;5069276;28;20028;-74
2024/03/30 02:24:45;;;;;;;2.47;2.25;;;10.40;99.90;;;;;;5071295;28;20085;-74
2024/03/30 02:27:11;;;;;;;3.55;2.30;;;10.40;99.90;;;;;;5071145;28;20028;-74
2024/03/30 02:29:38;;;;;;;3.78;2.58;;;10.40;99.90;;;;;;5072171;28;20496;-74
2024/03/30 02:32:05;;;;;;;2.92;2.63;;;10.40;99.90;;;;;;5073191;28;20444;-74
2024/03/30 02:34:31;;;;;;;2.95;2.33;;;10.40;99.90;;;;;;5062723;28;20024;-74
2024/03/30 02:36:57;;;;;;;3.38;2.30;;;10.40;99.90;;;;;;5072416;28;20029;-74
2024/03/30 02:39:22;;;;;;;3.08;2.33;;;10.30;99.90;;;;;;5062525;28;20029;-74
2024/03/30 02:41:48;;;;;;;3.67;2.80;;;10.30;99.90;;;;;;5070739;28;20447;-74
2024/03/30 02:44:14;;;;;;;3.85;2.55;;;10.30;99.90;;;;;;5070863;28;20029;-74
2024/03/30 02:46:40;;;;;;;3.20;2.70;;;10.30;99.90;;;;;;5066354;28;20127;-74
2024/03/30 02:49:05;;;;;;;4.82;2.20;;;10.30;99.90;;;;;;5070259;28;20047;-74
2024/03/30 02:51:31;;;;;;;3.25;2.47;;;10.20;99.90;;;;;;5056797;28;20021;-74
2024/03/30 02:53:57;;;;;;;3.47;2.72;;;10.20;99.90;;;;;;5072785;28;20509;-74
2024/03/30 02:56:23;;;;;;;3.42;2.60;;;10.20;99.90;;;;;;5070831;28;20114;-74
2024/03/30 02:58:48;;;;;;;3.08;2.65;;;10.10;99.90;;;;;;5064443;28;20075;-75
2024/03/30 03:01:14;;;;;;;3.90;2.78;;;10.10;99.90;;;;;;5071333;28;20029;-74
2024/03/30 03:03:40;;;;;;;3.58;2.75;;;10.10;99.90;;;;;;5070672;28;20031;-75
2024/03/30 03:06:06;;;;;;;4.30;3.03;;;10.10;99.90;;;;;;5063694;28;20035;-74
2024/03/30 03:08:32;;;;;;;3.08;2.22;;;10.00;99.90;;;;;;5054471;28;20028;-74
2024/03/30 03:10:58;;;;;;;6.28;2.80;;;10.00;99.90;;;;;;5070985;28;20024;-74
2024/03/30 03:13:23;;;;;;;5.95;2.55;;;9.90;99.90;;;;;;5069640;28;20025;-74
2024/03/30 03:15:49;;;;;;;2.50;2.15;;;9.90;99.90;;;;;;5070238;28;20020;-75
2024/03/30 03:18:14;;;;;;;3.58;2.85;;;9.90;99.90;;;;;;5071520;28;20093;-74
2024/03/30 03:20:41;;;;;;;3.55;2.70;;;9.90;99.90;;;;;;5071330;28;20024;-75
2024/03/30 03:23:07;;;;;;;2.97;2.67;;;9.80;99.90;;;;;;5069590;28;20127;-74
2024/03/30 03:25:33;;;;;;;4.15;2.90;;;9.80;99.90;;;;;;5070003;28;20028;-74
2024/03/30 03:27:59;;;;;;;3.95;3.03;;;9.80;99.90;;;;;;5054701;28;20025;-74
2024/03/30 03:30:24;;;;;;;4.15;2.60;;;9.70;99.90;;;;;;5068747;28;20020;-75
2024/03/30 03:32:50;;;;;;;3.35;2.63;;;9.70;99.90;;;;;;5070744;28;20025;-74
2024/03/30 03:35:15;;;;;;;3.55;2.75;;;9.70;99.90;;;;;;5070999;28;20052;-74
2024/03/30 03:37:41;;;;;;;4.30;2.53;;;9.60;99.90;;;;;;5070001;28;20035;-74
2024/03/30 03:40:07;;;;;;;3.03;2.72;;;9.60;99.90;;;;;;5063129;28;20021;-74
2024/03/30 03:42:34;;;;;;;3.38;2.88;;;9.60;99.90;;;;;;5070232;28;20016;-74
2024/03/30 03:45:00;;;;;;;5.18;2.78;;;9.60;99.90;;;;;;5069776;28;20115;-74
2024/03/30 03:47:33;;;;;;;4.05;3.05;;;9.60;99.90;;;;;;5070882;28;20032;-75
2024/03/30 03:50:02;;;;;;;3.55;2.90;;;9.50;99.90;;;;;;5070812;28;20016;-74
2024/03/30 03:52:27;;;;;;;3.88;2.80;;;9.50;99.90;;;;;;5070397;28;20021;-75
2024/03/30 03:54:53;;;;;;;3.10;2.80;;;9.50;99.90;;;;;;5063611;28;20032;-74
2024/03/30 03:57:19;;;;;;;5.35;2.97;;;9.50;99.90;;;;;;5067167;28;20496;-74
2024/03/30 03:59:45;;;;;;;3.08;2.47;;;9.50;99.90;;;;;;5069542;28;20017;-74
2024/03/30 04:02:11;;;;;;;4.30;3.17;;;9.50;99.90;;;;;;5069261;28;20028;-75
2024/03/30 04:04:36;;;;;;;4.07;3.67;;;9.50;99.90;;;;;;5069096;28;20077;-74
2024/03/30 04:07:02;;;;;;;4.80;2.88;;;9.50;99.90;;;;;;5063646;28;20071;-74
2024/03/30 04:09:29;;;;;;;5.05;3.20;;;9.50;99.90;;;;;;5069573;28;20017;-74
2024/03/30 04:11:55;;;;;;;7.65;4.00;;;9.50;99.90;;;;;;5070502;28;20020;-74
2024/03/30 04:14:20;;;;;;;4.07;3.30;;;9.50;99.90;;;;;;5069731;28;20170;-75
2024/03/30 04:16:46;;;;;;;4.68;3.13;;;9.50;99.90;;;;;;5069539;28;20073;-74
2024/03/30 04:19:17;;;;;;;4.13;3.40;;;9.50;99.90;;;;;;5060740;28;20032;-74
2024/03/30 04:21:50;;;;;;;4.47;3.35;;;9.50;99.90;;;;;;5070426;28;20025;-74
2024/03/30 04:24:16;;;;;;;4.32;3.10;;;9.50;99.90;;;;;;5070647;28;20027;-75
2024/03/30 04:26:41;;;;;;;3.20;2.80;;;9.50;99.90;;;;;;5067990;28;20032;-74
2024/03/30 04:29:07;;;;;;;4.07;2.92;;;9.50;99.90;;;;;;5069841;28;20112;-75
2024/03/30 04:31:33;;;;;;;3.47;2.80;;;9.40;99.90;;;;;;5071415;28;20024;-74
2024/03/30 04:34:08;;;;;;;5.03;3.33;;;9.40;99.90;;;;;;5069694;28;20180;-74
2024/03/30 04:36:33;;;;;;;3.28;2.80;;;9.40;99.90;;;;;;5068885;28;20031;-74
2024/03/30 04:38:59;;;;;;;3.88;2.65;;;9.40;99.90;;;;;;5065347;28;20103;-74
2024/03/30 04:41:25;;;;;;;4.72;3.35;;;9.40;99.90;;;;;;5069464;28;20085;-74
2024/03/30 04:43:51;;;;;;;7.82;3.17;;;9.30;99.90;;;;;;5062141;28;20028;-74
2024/03/30 04:46:17;;;;;;;4.55;3.30;;;9.40;99.90;;;;;;5071384;28;20029;-74
2024/03/30 04:48:45;;;;;;;4.88;3.80;;;9.40;99.90;;;;;;5069137;28;20611;-74
2024/03/30 04:51:14;;;;;;;5.82;3.80;;;9.30;99.90;;;;;;5069368;28;20385;-75
2024/03/30 04:53:48;;;;;;;5.30;3.15;;;9.30;99.90;;;;;;5062335;28;20174;-74
2024/03/30 04:56:14;;;;;;;5.18;3.67;;;9.30;99.90;;;;;;5069182;28;20032;-74
2024/03/30 04:58:42;;;;;;;4.10;3.58;;;9.30;99.90;;;;;;5069977;28;20028;-74
2024/03/30 05:01:09;;;;;;;10.05;5.03;;;9.30;99.90;;;;;;5068803;28;20397;-74
2024/03/30 05:03:36;;;;;;;5.32;4.43;;;9.30;99.90;;;;;;5061350;28;20029;-73
2024/03/30 05:06:03;;;;;;;5.68;4.22;;;9.20;99.90;;;;;;5069137;28;20505;-74
2024/03/30 05:08:29;;;;;;;6.20;4.10;;;9.20;99.90;;;;;;5070121;28;20067;-74
2024/03/30 05:10:55;;;;;;;6.03;4.22;;;9.20;99.90;;;;;;5068983;28;20397;-74
2024/03/30 05:13:22;;;;;;;6.97;4.93;;;9.20;99.90;;;;;;5068799;28;20020;-74
2024/03/30 05:15:48;;;;;;;6.18;4.60;;;9.20;99.90;;;;;;5069185;28;20503;-74
2024/03/30 05:18:17;;;;;;;5.80;3.90;;;9.10;99.90;;;;;;5069211;28;20052;-74
2024/03/30 05:20:53;;;;;;;5.47;4.25;;;9.10;99.90;;;;;;5069306;28;20048;-74
2024/03/30 05:23:21;;;;;;;6.00;4.75;;;9.20;99.90;;;;;;5068986;28;20027;-74
2024/03/30 05:25:48;;;;;;;5.93;5.28;;;9.20;99.90;;;;;;5071237;28;20086;-74
2024/03/30 05:28:20;;;;;;;5.90;5.30;;;9.20;99.90;;;;;;5074505;28;20029;-74
2024/03/30 05:30:54;;;;;;;7.28;4.65;;;9.20;99.90;;;;;;5076983;28;20021;-74
2024/03/30 05:33:22;;;;;;;5.72;4.50;;;9.20;99.90;;;;;;5067234;28;20032;-74
2024/03/30 05:35:48;;;;;;;5.95;4.47;;;9.20;99.90;;;;;;5076266;28;20020;-74
2024/03/30 05:38:15;;;;;;;6.50;5.47;;;9.20;99.90;;;;;;5072650;28;20132;-74
2024/03/30 05:40:42;;;;;;;5.97;5.38;;;9.20;99.90;;;;;;5076719;28;20047;-75
2024/03/30 05:43:08;;;;;;;6.82;5.18;;;9.30;99.90;;;;;;5071285;28;20040;-74
2024/03/30 05:45:35;;;;;;;6.50;5.40;;;9.30;99.90;;;;;;5076750;28;20151;-74
2024/03/30 05:48:01;;;;;;;6.85;5.38;;;9.30;99.90;;;;;;5073552;28;20641;-74
2024/03/30 05:50:30;;;;;;;7.35;5.85;;;9.40;99.90;;;;;;5068940;28;20024;-74
2024/03/30 05:52:56;;;;;;;7.35;5.50;;;9.40;99.90;;;;;;5066730;28;20107;-74
2024/03/30 05:55:21;;;;;;;5.00;4.50;;;9.40;99.90;;;;;;5077617;28;20031;-75
2024/03/30 05:57:48;;;;;;;6.05;5.03;;;9.40;99.90;;;;;;5070981;28;20025;-75
2024/03/30 06:00:15;;;;;;;6.35;4.40;;;9.50;99.90;;;;;;5078975;28;20025;-75
2024/03/30 06:02:43;;;;;;;5.57;4.57;;;9.40;99.90;;;;;;5079718;28;20019;-75
2024/03/30 06:05:10;;;;;;;6.75;5.25;;;9.40;99.90;;;;;;5078870;28;20544;-75
2024/03/30 06:07:36;;;;;;;5.10;4.57;;;9.50;99.90;;;;;;5077894;28;20033;-75
2024/03/30 06:10:06;;;;;;;9.65;7.15;;;9.50;99.90;;;;;;5071185;28;20052;-74
2024/03/30 06:12:32;;;;;;;11.13;6.03;;;9.60;99.90;;;;;;5074838;28;20024;-75
2024/03/30 06:14:58;;;;;;;9.82;6.47;;;9.70;99.90;;;;;;5078495;28;20032;-75
2024/03/30 06:17:24;;;;;;;7.22;5.28;;;9.70;99.90;;;;;;5078728;28;20028;-75
2024/03/30 06:19:49;;;;;;;6.43;5.68;;;9.80;99.90;;;;;;5078831;28;20016;-75
2024/03/30 06:22:15;;;;;;;7.57;5.97;;;9.80;99.90;;;;;;5077406;28;20024;-75
2024/03/30 06:24:41;;;;;;;7.78;5.25;;;9.90;99.90;;;;;;5071161;28;20429;-75
2024/03/30 06:27:10;;;;;;;7.53;5.88;;;9.90;99.90;;;;;;5070889;28;20028;-75
2024/03/30 06:29:36;;;;;;;5.80;4.88;;;10.00;99.90;;;;;;5071192;28;20429;-75
2024/03/30 06:32:03;;;;;;;8.02;6.30;;;10.00;99.90;;;;;;5071542;28;20028;-75
2024/03/30 06:34:32;;;;;;;7.85;7.00;;;10.10;99.90;;;;;;5071105;28;20089;-74
2024/03/30 06:36:58;;;;;;;7.53;6.05;;;10.20;99.90;;;;;;5071573;28;20513;-74
2024/03/30 06:39:24;;;;;;;7.90;5.50;;;10.30;99.90;;;;;;5071901;28;20070;-75
2024/03/30 06:44:37;;;;;;;6.97;5.75;;;10.30;99.90;;;;;;5071962;28;20057;-75
2024/03/30 06:47:03;;;;;;;12.18;6.60;;;10.40;99.90;;;;;;5062997;28;20119;-74
2024/03/30 06:49:28;;;;;;;8.65;7.15;;;10.50;99.90;;;;;;5070390;28;20021;-74
2024/03/30 06:51:54;;;;;;;11.48;6.15;;;10.60;99.90;;;;;;5058593;28;20055;-74
2024/03/30 06:54:20;;;;;;;7.05;6.20;;;10.70;99.90;;;;;;5070344;28;20493;-75
2024/03/30 06:56:46;;;;;;;8.02;5.68;;;10.90;99.90;;;;;;5070288;28;20381;-75
2024/03/30 06:59:12;;;;;;;9.18;6.15;;;10.90;99.90;;;;;;5070385;28;20136;-75
2024/03/30 07:01:38;;;;;;;7.63;5.78;;;11.00;99.90;;;;;;5070127;28;20063;-75
2024/03/30 07:04:04;;;;;;;6.95;5.53;;;11.10;99.90;;;;;;5071189;28;20143;-75
2024/03/30 07:06:30;;;;;;;8.02;5.43;;;11.20;99.90;;;;;;5059245;28;20075;-75
2024/03/30 07:08:59;;;;;;;8.60;6.22;;;11.30;99.90;;;;;;5057062;28;20479;-75
2024/03/30 07:11:26;;;;;;;6.10;5.00;;;11.40;99.90;;;;;;5040312;28;20029;-76
2024/03/30 07:13:51;;;;;;;6.93;5.65;;;11.50;99.90;;;;;;5046471;28;20459;-76
2024/03/30 07:16:17;;;;;;;6.80;5.25;;;11.70;99.90;;;;;;5042845;28;20079;-75
2024/03/30 07:18:46;;;;;;;9.15;5.95;;;11.70;99.90;;;;;;5050312;28;20327;-74
2024/03/30 07:21:12;;;;;;;5.93;4.88;;;11.90;99.90;;;;;;5045348;28;20064;-74
2024/03/30 07:23:38;;;;;;;7.18;5.60;;;12.10;99.90;;;;;;5048044;28;20099;-75
2024/03/30 07:26:07;;;;;;;5.38;4.75;;;12.20;99.90;;;;;;5045634;28;20117;-74
2024/03/30 07:28:33;;;;;;;6.93;5.68;;;12.30;99.90;;;;;;5047429;28;20029;-74
2024/03/30 07:31:06;;;;;;;6.25;5.15;;;12.50;99.90;;;;;;5045058;28;20024;-74
2024/03/30 07:33:33;;;;;;;6.65;5.30;;;12.60;99.90;;;;;;5045919;28;20198;-74
2024/03/30 07:35:59;;;;;;;6.78;5.10;;;12.70;99.90;;;;;;5058250;28;20047;-75
2024/03/30 07:38:28;;;;;;;7.70;5.93;;;12.80;99.90;;;;;;5051358;28;20026;-74
2024/03/30 07:40:54;;;;;;;8.95;5.40;;;12.90;99.90;;;;;;5059236;28;20024;-74
2024/03/30 07:43:20;;;;;;;7.75;5.22;;;13.00;99.90;;;;;;5056649;28;20165;-74
2024/03/30 07:45:48;;;;;;;8.30;5.22;;;13.00;99.90;;;;;;5070839;28;20103;-74
2024/03/30 07:48:16;;;;;;;7.13;5.22;;;13.10;99.90;;;;;;5070460;28;20063;-74
2024/03/30 07:50:42;;;;;;;6.13;5.18;;;13.30;99.90;;;;;;5066532;28;20028;-75
2024/03/30 07:53:08;;;;;;;5.88;4.45;;;13.40;99.90;;;;;;5070372;28;20531;-74
2024/03/30 07:55:34;;;;;;;6.47;4.60;;;13.50;99.90;;;;;;5070510;28;20032;-74
2024/03/30 07:58:06;;;;;;;7.28;4.75;;;13.60;99.90;;;;;;5070479;28;20021;-74
2024/03/30 08:00:32;;;;;;;5.93;4.30;;;13.70;99.90;;;;;;5069464;28;20025;-74
2024/03/30 08:03:01;;;;;;;6.20;4.15;;;13.80;99.90;;;;;;5068908;28;20039;-74
2024/03/30 08:05:28;;;;;;;4.95;3.75;;;14.00;99.90;;;;;;5069050;28;20489;-73
2024/03/30 08:07:54;;;;;;;9.18;4.78;;;14.20;99.90;;;;;;5070470;28;20026;-73
2024/03/30 08:10:23;;;;;;;5.82;4.50;;;14.50;99.90;;;;;;5060870;28;20043;-74
2024/03/30 08:12:49;;;;;;;5.72;4.22;;;14.70;99.90;;;;;;5069953;28;20393;-74
2024/03/30 08:15:16;;;;;;;5.82;4.47;;;14.90;99.90;;;;;;5069078;28;20351;-75
2024/03/30 08:17:42;;;;;;;5.55;4.03;;;15.00;99.90;;;;;;5070164;28;20029;-75
2024/03/30 08:20:09;;;;;;;5.07;4.00;;;15.20;99.90;;;;;;5069052;28;20032;-75
2024/03/30 08:22:38;;;;;;;5.72;4.03;;;15.60;99.90;;;;;;5068701;28;20047;-75
2024/03/30 08:25:05;;;;;;;3.88;3.22;;;15.90;99.90;;;;;;5069315;28;20384;-75
2024/03/30 08:27:33;;;;;;;4.60;3.70;;;16.40;99.90;;;;;;5068639;28;20056;-75
2024/03/30 08:29:59;;;;;;;4.57;4.18;;;16.90;99.90;;;;;;5068825;28;20024;-75
2024/03/30 08:32:28;;;;;;;4.68;3.08;;;17.20;99.90;;;;;;5070077;28;20247;-75
2024/03/30 08:34:54;;;;;;;5.28;3.95;;;17.80;99.90;;;;;;5068952;28;20058;-75
2024/03/30 08:37:20;;;;;;;5.82;4.47;;;18.40;99.90;;;;;;5068600;28;20012;-75
2024/03/30 08:39:46;;;;;;;4.63;3.75;;;19.10;99.90;;;;;;5068638;28;20055;-75
2024/03/30 08:42:12;;;;;;;5.63;4.05;;;19.30;98.80;;;;;;5067643;28;20048;-75
2024/03/30 08:44:38;;;;;;;4.13;3.33;;;20.00;97.90;;;;;;5068319;28;20174;-75
2024/03/30 08:47:04;;;;;;;3.95;3.15;;;20.80;96.80;;;;;;5070241;28;20066;-76
2024/03/30 08:49:29;;;;;;;5.07;2.58;;;21.40;95.90;;;;;;5070422;28;20032;-76
2024/03/30 08:51:55;;;;;;;3.80;2.80;;;22.20;93.90;;;;;;5068618;28;20107;-76
2024/03/30 08:54:21;;;;;;;2.78;2.47;;;22.60;92.10;;;;;;5069578;28;20036;-75
2024/03/30 08:56:49;;;;;;;5.55;3.30;;;23.10;91.80;;;;;;5068827;28;20533;-76
2024/03/30 08:59:15;;;;;;;3.40;2.90;;;23.30;89.70;;;;;;5068549;28;20025;-76
2024/03/30 09:01:41;;;;;;;5.65;3.40;;;23.30;91.10;;;;;;5065112;28;20424;-76
2024/03/30 09:04:09;;;;;;;4.38;2.72;;;23.10;89.80;;;;;;5072602;28;20032;-76
2024/03/30 09:06:35;;;;;;;5.78;3.58;;;23.10;88.80;;;;;;5065170;28;20121;-76
2024/03/30 09:09:01;;;;;;;3.03;2.50;;;23.20;86.50;;;;;;5065149;28;20029;-76
2024/03/30 09:11:26;;;;;;;3.22;2.70;;;23.60;87.30;;;;;;5073684;28;20099;-76
2024/03/30 09:13:52;;;;;;;5.32;3.28;;;24.30;86.40;;;;;;5072382;28;20029;-76
2024/03/30 09:16:17;;;;;;;4.32;3.00;;;24.90;84.20;;;;;;5072626;28;20025;-76
2024/03/30 09:18:46;;;;;;;4.65;2.97;;;24.30;83.80;;;;;;5072035;28;20513;-76
2024/03/30 09:21:12;;;;;;;5.68;2.97;;;24.50;81.40;;;;;;5066467;28;20035;-76
2024/03/30 09:23:38;;;;;;;7.65;3.67;;;24.70;81.90;;;;;;5073301;28;20100;-75
2024/03/30 09:26:09;;;;;;;6.53;3.13;;;24.60;81.30;;;;;;5073649;28;20384;-76
2024/03/30 09:28:35;;;;;;;8.02;3.30;;;24.50;81.40;;;;;;5073345;28;20037;-76
2024/03/30 09:31:03;;;;;;;5.63;3.05;;;24.90;81.70;;;;;;5073716;28;20490;-76
2024/03/30 09:33:32;;;;;;;10.38;2.90;;;25.30;80.20;;;;;;5073022;28;20025;-76
2024/03/30 09:36:08;;;;;;;8.55;3.40;;;25.30;79.40;;;;;;5068540;28;20017;-76
2024/03/30 09:38:37;;;;;;;8.20;3.22;;;25.50;78.80;;;;;;5068624;28;20031;-76
2024/03/30 09:41:04;;;;;;;4.63;2.70;;;25.80;79.10;;;;;;5073160;28;20025;-76
2024/03/30 09:43:35;;;;;;;4.55;2.97;;;26.30;78.50;;;;;;5072563;28;20111;-76
2024/03/30 09:46:04;;;;;;;7.03;3.05;;;26.10;77.60;;;;;;5071834;28;20481;-77
2024/03/30 09:48:31;;;;;;;6.25;3.53;;;26.20;77.80;;;;;;5071891;28;20028;-76
2024/03/30 09:50:59;;;;;;;10.88;3.10;;;26.70;77.50;;;;;;5071595;28;20050;-76
2024/03/30 09:53:26;;;;;;;7.43;3.65;;;26.90;76.10;;;;;;5070735;28;20029;-76
2024/03/30 09:55:56;;;;;;;6.28;3.20;;;26.90;76.10;;;;;;5073032;28;20025;-76
2024/03/30 09:58:23;;;;;;;9.70;3.47;;;27.10;76.10;;;;;;5071402;28;20037;-76
2024/03/30 10:00:51;;;;;;;8.32;3.67;;;27.10;71.60;;;;;;5073034;28;20131;-76
2024/03/30 10:03:18;;;;;;;9.07;3.75;;;26.50;74.50;;;;;;5072528;28;20363;-76
2024/03/30 10:05:47;;;;;;;8.25;3.47;;;26.40;72.50;;;;;;5071451;28;20025;-76
2024/03/30 10:08:17;;;;;;;12.07;3.83;;;26.10;73.90;;;;;;5071537;28;20567;-76
2024/03/30 10:10:52;;;;;;;9.13;4.20;;;26.00;76.00;;;;;;5070564;28;20021;-76
2024/03/30 10:13:28;;;;;;;12.48;4.22;;;25.60;76.10;;;;;;5065809;28;20079;-76
2024/03/30 10:15:55;;;;;;;23.20;4.68;;;25.10;76.50;;;;;;5072729;28;20051;-75
2024/03/30 10:18:22;;;;;;;7.35;3.78;;;24.80;76.60;;;;;;5071396;28;20552;-76
2024/03/30 10:20:48;;;;;;;15.40;4.13;;;24.80;78.20;;;;;;5064288;28;20025;-76
2024/03/30 10:23:14;;;;;;;17.90;4.28;;;24.50;77.10;;;;;;5072169;28;20485;-76
2024/03/30 10:25:51;;;;;;;14.82;4.93;;;24.70;77.50;;;;;;5071044;28;20553;-77
2024/03/30 10:28:18;;;;;;;15.15;4.50;;;24.80;77.90;;;;;;5070959;28;20093;-76
2024/03/30 10:30:44;;;;;;;16.35;5.05;;;24.90;75.10;;;;;;5071034;28;20020;-76
2024/03/30 10:33:14;;;;;;;22.55;4.22;;;25.10;74.00;;;;;;5070702;28;20025;-76
2024/03/30 10:35:43;;;;;;;14.52;4.53;;;25.00;74.00;;;;;;5071137;28;20021;-76
2024/03/30 10:38:11;;;;;;;16.40;4.30;;;24.50;75.60;;;;;;5070980;28;20118;-77
2024/03/30 10:40:38;;;;;;;18.85;5.47;;;24.40;76.90;;;;;;5070863;28;20228;-76
2024/03/30 10:43:07;;;;;;;15.02;4.90;;;24.30;76.70;;;;;;5071814;28;20070;-76
2024/03/30 10:45:33;;;;;;;16.73;4.65;;;24.30;76.90;;;;;;5071027;28;20359;-76
2024/03/30 10:47:59;;;;;;;21.75;5.95;;;24.40;76.60;;;;;;5071937;28;20035;-76
2024/03/30 10:50:26;;;;;;;15.02;4.22;;;24.30;78.60;;;;;;5070716;28;20043;-76
2024/03/30 10:52:53;;;;;;;22.33;4.97;;;24.30;77.80;;;;;;5070338;28;20016;-76
2024/03/30 10:55:19;;;;;;;20.25;5.18;;;24.10;77.90;;;;;;5070620;28;20028;-76
2024/03/30 10:57:45;;;;;;;15.57;4.97;;;24.40;77.80;;;;;;5070584;28;20462;-76
2024/03/30 11:00:13;;;;;;;19.42;5.15;;;24.20;77.10;;;;;;5070570;28;20068;-76
2024/03/30 11:02:40;;;;;;;17.98;5.07;;;24.10;78.90;;;;;;5069986;28;20021;-76
2024/03/30 11:05:07;;;;;;;22.15;5.55;;;23.80;78.40;;;;;;5071919;28;20017;-76
2024/03/30 11:07:37;;;;;;;17.90;4.68;;;24.00;79.30;;;;;;5071586;28;20432;-76
2024/03/30 11:10:06;;;;;;;26.13;6.75;;;24.40;80.30;;;;;;5070132;28;20167;-76
2024/03/30 11:12:33;;;;;;;22.13;5.78;;;24.60;80.50;;;;;;5071184;28;20012;-76
2024/03/30 11:15:00;;;;;;;27.55;6.13;;;24.80;80.70;;;;;;5062123;28;20408;-76
2024/03/30 11:17:41;;;;;;;19.30;5.72;;;25.00;78.90;;;;;;5071719;28;20423;-76
2024/03/30 11:20:13;;;;;;;23.92;5.35;;;25.10;79.10;;;;;;5070468;28;20037;-76
2024/03/30 11:22:52;;;;;;;21.75;5.75;;;25.00;77.70;;;;;;5071359;28;20024;-76
2024/03/30 11:25:20;;;;;;;30.42;6.93;;;25.10;77.00;;;;;;5070253;28;20016;-76
2024/03/30 11:27:51;;;;;;;20.63;6.75;;;25.30;76.40;;;;;;5071225;28;20109;-77
2024/03/30 11:30:40;;;;;;;26.52;5.85;;;25.10;79.40;;;;;;5069881;28;20554;-76
2024/03/30 11:33:21;;;;;;;24.45;5.82;;;24.80;79.40;;;;;;5065870;28;20036;-76
2024/03/30 11:36:02;;;;;;;17.85;5.47;;;24.60;76.80;;;;;;5067098;28;20016;-76
2024/03/30 11:38:35;;;;;;;26.10;6.20;;;24.70;79.90;;;;;;5069784;28;20064;-76
2024/03/30 11:41:02;;;;;;;31.58;7.18;;;24.50;79.70;;;;;;5069723;28;20032;-76
2024/03/30 11:43:43;;;;;;;23.35;6.75;;;24.40;77.20;;;;;;5069393;28;20505;-76
2024/03/30 11:46:09;;;;;;;29.10;6.50;;;24.30;78.50;;;;;;5071338;28;20047;-76
2024/03/30 11:48:36;;;;;;;29.85;6.45;;;24.40;81.30;;;;;;5070719;28;20021;-76
2024/03/30 11:51:14;;;;;;;29.10;7.25;;;24.40;79.80;;;;;;5070653;28;20186;-76
2024/03/30 11:53:40;;;;;;;24.35;6.57;;;24.20;77.60;;;;;;5069051;28;20506;-76
2024/03/30 11:56:12;;;;;;;26.35;6.40;;;23.80;80.40;;;;;;5061032;28;20135;-76
2024/03/30 11:58:42;;;;;;;27.40;5.90;;;23.90;81.60;;;;;;5070899;28;20067;-76
2024/03/30 12:01:09;;;;;;;23.42;5.90;;;23.70;81.50;;;;;;5069336;28;20032;-76
2024/03/30 12:03:36;;;;;;;20.85;6.00;;;23.90;81.70;;;;;;5070146;28;20020;-76
2024/03/30 12:06:03;;;;;;;24.52;6.45;;;24.20;82.30;;;;;;5070828;28;20899;-77
2024/03/30 12:08:29;;;;;;;26.20;6.03;;;24.60;80.80;;;;;;5068963;28;20485;-77
2024/03/30 12:10:56;;;;;;;28.98;6.75;;;25.10;79.50;;;;;;5069084;28;20517;-76
2024/03/30 12:13:36;;;;;;;31.17;7.03;;;25.40;76.20;;;;;;5068680;28;20104;-77
2024/03/30 12:16:06;;;;;;;37.38;7.25;;;25.50;79.80;;;;;;5069048;28;20034;-77
2024/03/30 12:18:32;;;;;;;25.50;5.95;;;25.40;78.30;;;;;;5069284;28;20028;-76
2024/03/30 12:21:01;;;;;;;32.10;6.85;;;25.20;78.00;;;;;;5069103;28;20036;-76
2024/03/30 12:23:27;;;;;;;34.23;8.23;;;25.10;76.50;;;;;;5068489;28;20361;-76
2024/03/30 12:25:57;;;;;;;40.88;8.25;;;24.60;75.80;;;;;;5070153;28;20373;-77
2024/03/30 12:28:23;;;;;;;40.50;8.07;;;24.40;75.10;;;;;;5069915;28;20055;-77
2024/03/30 12:30:51;;;;;;;40.13;8.70;;;24.20;77.40;;;;;;5068713;28;20055;-77
2024/03/30 12:33:17;;;;;;;33.67;8.18;;;24.20;77.00;;;;;;5068350;28;20024;-76
2024/03/30 12:35:44;;;;;;;31.02;8.02;;;24.00;78.80;;;;;;5068411;28;20021;-77
2024/03/30 12:38:13;;;;;;;38.38;8.38;;;24.10;78.60;;;;;;5070261;28;20032;-76
2024/03/30 12:40:39;;;;;;;35.58;7.78;;;24.10;78.30;;;;;;5070357;28;20539;-77
2024/03/30 12:43:05;;;;;;;31.48;7.43;;;23.80;79.10;;;;;;5068202;28;20127;-76
2024/03/30 12:45:31;;;;;;;45.65;8.98;;;23.70;80.60;;;;;;5070340;28;20507;-76
2024/03/30 12:48:03;;;;;;;33.33;7.75;;;23.60;79.80;;;;;;5068887;28;20493;-76
2024/03/30 12:50:29;;;;;;;25.42;7.38;;;23.50;80.00;;;;;;5070453;28;20070;-76